Sign in to follow this  
Guest GrahamB

FS Meteo 5.2 right now

Recommended Posts

In flight now using FS Meteo 5.2, just wondering if it's me or FS Meteo server. As of 06 0208Z I am currently seeing the most recent METARS as the 05 2300Z cycle. Anybody else? FS Meteo SFO:KSFO 052256Z 26014KT 10SM SCT037 SCT200 23/16 A3001 RMK AO2 SLP162 T02280156Thanks,Graham

Share this post


Link to post
Share on other sites
Help AVSIM continue to serve you!
Please donate today!

Bump.Appears to be stuck again. For KSFO i'm currently getting:KSFO 072056Z 26015KT 10SM FEW015 22/13 A3005 RMK AO2 SLP176 T02220128 58006 Now that's only 2 hours old and not that big of a deal, but I just want to know if anyone else has noticed that FS Meteo doesn't stay as current as it used to? It used to update to the new observation within 20 minutes of it being issued. Maybe it's just server volume from all the people using FS2004 right now? Maybe someone else could confirm they get old metars right now, too?Thanks,Graham

Share this post


Link to post
Share on other sites

Create an account or sign in to comment

You need to be a member in order to leave a comment

Create an account

Sign up for a new account in our community. It's easy!

Register a new account

Sign in

Already have an account? Sign in here.

Sign In Now
Sign in to follow this